createdAt,value
2022-12-14T00:01:18.809Z,100572.28
2022-12-14T00:03:46.862Z,100567.66
2022-12-14T00:06:15.046Z,100565.88
2022-12-14T00:08:42.513Z,100561.41
2022-12-14T00:11:09.829Z,100562.59
2022-12-14T00:13:37.284Z,100566.28
2022-12-14T00:16:05.401Z,100571.53
2022-12-14T00:18:32.247Z,100567.84
2022-12-14T00:21:09.948Z,100573.81
2022-12-14T00:23:39.278Z,100575.41
2022-12-14T00:26:09.608Z,100568.53
2022-12-14T00:28:37.031Z,100574.47
2022-12-14T00:31:04.205Z,100567.41
2022-12-14T00:33:31.387Z,100570.41
2022-12-14T00:35:58.391Z,100569.91
2022-12-14T00:38:25.497Z,100568.28
2022-12-14T00:40:53.196Z,100568.47
2022-12-14T00:43:20.279Z,100564.41
2022-12-14T00:45:47.605Z,100559.81
2022-12-14T00:48:14.878Z,100557.97
2022-12-14T00:50:42.064Z,100553.72
2022-12-14T00:53:15.736Z,100553.91
2022-12-14T00:55:49.323Z,100548.00
2022-12-14T00:58:17.738Z,100545.94
2022-12-14T01:00:45.072Z,100542.47
2022-12-14T01:03:12.077Z,100538.03
2022-12-14T01:05:39.390Z,100533.59
2022-12-14T01:08:06.846Z,100535.28
2022-12-14T01:10:34.118Z,100533.75
2022-12-14T01:13:00.949Z,100537.22
2022-12-14T01:15:28.033Z,100535.06
2022-12-14T01:17:54.915Z,100530.63
2022-12-14T01:20:21.771Z,100533.44
2022-12-14T01:22:53.510Z,100535.44
2022-12-14T01:25:21.057Z,100530.00
2022-12-14T01:27:47.836Z,100533.41
2022-12-14T01:30:17.393Z,100541.09
2022-12-14T01:32:44.178Z,100534.22
2022-12-14T01:35:11.074Z,100528.97
2022-12-14T01:37:38.239Z,100526.34
2022-12-14T01:40:05.695Z,100537.03
2022-12-14T01:42:34.591Z,100539.19
2022-12-14T01:45:01.518Z,100535.84
2022-12-14T01:47:37.716Z,100532.22
2022-12-14T01:50:09.607Z,100531.31
2022-12-14T01:55:58.481Z,100528.66
2022-12-14T01:58:26.265Z,100528.38
2022-12-14T02:00:55.304Z,100528.09
2022-12-14T02:03:31.423Z,100521.34
2022-12-14T02:06:01.380Z,100519.72
2022-12-14T02:08:29.150Z,100513.00
2022-12-14T02:10:56.753Z,100516.81
2022-12-14T02:13:29.649Z,100512.59
2022-12-14T02:15:56.791Z,100511.59
2022-12-14T02:18:25.122Z,100509.50
2022-12-14T02:21:05.861Z,100505.97
2022-12-14T02:23:51.595Z,100506.56
2022-12-14T02:26:39.351Z,100507.94
2022-12-14T02:29:13.727Z,100505.16
2022-12-14T02:31:54.517Z,100506.47
2022-12-14T02:34:24.333Z,100498.06
2022-12-14T02:37:00.255Z,100494.91
2022-12-14T02:39:39.267Z,100493.44
2022-12-14T02:42:13.583Z,100500.94
2022-12-14T02:44:46.804Z,100497.50
2022-12-14T02:47:36.355Z,100490.81
2022-12-14T02:50:14.332Z,100498.88
2022-12-14T02:52:46.317Z,100505.00
2022-12-14T02:55:16.799Z,100495.75
2022-12-14T02:57:48.136Z,100486.44
2022-12-14T03:00:15.847Z,100491.91
2022-12-14T03:02:44.000Z,100480.38
2022-12-14T03:05:11.134Z,100483.38
2022-12-14T03:07:48.684Z,100478.88
2022-12-14T03:10:37.156Z,100468.09
2022-12-14T03:13:12.532Z,100464.09
2022-12-14T03:15:41.940Z,100463.28
2022-12-14T03:18:09.475Z,100458.94
2022-12-14T03:20:37.677Z,100458.91
2022-12-14T03:23:09.260Z,100453.53
2022-12-14T03:25:44.403Z,100452.72
2022-12-14T03:28:12.262Z,100448.44
2022-12-14T03:30:59.307Z,100448.25
2022-12-14T03:33:28.272Z,100447.44
2022-12-14T03:35:58.387Z,100438.47
2022-12-14T03:38:25.298Z,100434.41
2022-12-14T03:40:59.689Z,100440.81
2022-12-14T03:43:49.953Z,100449.63
2022-12-14T03:46:49.471Z,100443.09
2022-12-14T03:49:16.274Z,100437.66
2022-12-14T03:51:56.483Z,100441.91
2022-12-14T03:54:23.309Z,100433.59
2022-12-14T03:56:56.974Z,100437.81
2022-12-14T03:59:33.097Z,100431.09
2022-12-14T04:02:00.732Z,100430.75
2022-12-14T04:04:32.707Z,100428.03
2022-12-14T04:07:08.089Z,100428.41
2022-12-14T04:09:44.122Z,100423.88
2022-12-14T04:12:33.081Z,100424.53
2022-12-14T04:15:22.286Z,100413.69
2022-12-14T04:18:10.273Z,100405.69
2022-12-14T04:20:42.123Z,100406.28
2022-12-14T04:23:37.363Z,100404.91
2022-12-14T04:26:05.744Z,100397.34
2022-12-14T04:28:54.096Z,100395.81
2022-12-14T04:31:23.197Z,100395.00
2022-12-14T04:33:52.920Z,100405.28
2022-12-14T04:36:31.984Z,100394.22
2022-12-14T04:39:01.884Z,100395.91
2022-12-14T04:41:31.579Z,100395.91
2022-12-14T04:44:03.038Z,100404.19
2022-12-14T04:46:36.258Z,100395.19
2022-12-14T04:49:09.847Z,100391.44
2022-12-14T04:51:43.010Z,100391.75
2022-12-14T04:54:16.895Z,100379.91
2022-12-14T04:56:53.303Z,100380.75
2022-12-14T04:59:20.201Z,100379.91
2022-12-14T05:01:50.061Z,100376.72
2022-12-14T05:04:26.683Z,100374.78
2022-12-14T05:06:53.505Z,100376.13
2022-12-14T05:09:20.348Z,100371.63
2022-12-14T05:11:53.506Z,100368.03
2022-12-14T05:14:24.048Z,100363.16
2022-12-14T05:16:51.066Z,100368.38
2022-12-14T05:19:17.989Z,100366.50
2022-12-14T05:21:48.072Z,100361.72
2022-12-14T05:24:15.462Z,100364.31
2022-12-14T05:26:45.327Z,100368.56
2022-12-14T05:29:12.371Z,100362.53
2022-12-14T05:31:39.680Z,100362.63
2022-12-14T05:34:06.686Z,100359.91
2022-12-14T05:36:33.531Z,100352.38
2022-12-14T05:39:01.235Z,100359.09
2022-12-14T05:41:28.216Z,100350.59
2022-12-14T05:43:55.191Z,100351.34
2022-12-14T05:46:22.125Z,100353.78
2022-12-14T05:48:49.651Z,100349.53
2022-12-14T05:51:16.775Z,100352.50
2022-12-14T05:53:43.701Z,100344.28
2022-12-14T05:56:10.671Z,100341.56
2022-12-14T05:58:38.094Z,100347.78
2022-12-14T06:01:12.761Z,100339.75
2022-12-14T06:03:44.036Z,100344.34
2022-12-14T06:06:12.363Z,100335.91
2022-12-14T06:08:40.451Z,100330.03
2022-12-14T06:11:08.691Z,100332.34
2022-12-14T06:13:36.399Z,100325.63
2022-12-14T06:16:09.423Z,100325.63
2022-12-14T06:18:37.306Z,100331.00
2022-12-14T06:21:04.148Z,100334.53
2022-12-14T06:23:31.407Z,100328.47
2022-12-14T06:25:58.265Z,100324.63
2022-12-14T06:28:25.497Z,100331.81
2022-12-14T06:30:52.451Z,100330.19
2022-12-14T06:33:19.385Z,100322.66
2022-12-14T06:35:49.115Z,100324.81
2022-12-14T06:38:17.381Z,100317.94
2022-12-14T06:40:44.789Z,100323.97
2022-12-14T06:43:11.653Z,100325.63
2022-12-14T06:45:39.194Z,100322.34
2022-12-14T06:48:06.674Z,100324.31
2022-12-14T06:50:34.052Z,100325.13
2022-12-14T06:53:01.650Z,100327.31
2022-12-14T06:55:30.051Z,100319.47
2022-12-14T06:57:56.943Z,100314.84
2022-12-14T07:00:24.451Z,100312.34
2022-12-14T07:02:51.316Z,100315.56
2022-12-14T07:05:18.704Z,100318.03
2022-12-14T07:07:46.110Z,100322.28
2022-12-14T07:10:13.015Z,100322.88
2022-12-14T07:12:41.461Z,100322.47
2022-12-14T07:15:08.749Z,100324.09
2022-12-14T07:17:37.168Z,100317.84
2022-12-14T07:20:04.949Z,100315.66
2022-12-14T07:22:31.798Z,100307.38
2022-12-14T07:24:58.832Z,100312.41
2022-12-14T07:27:26.224Z,100311.97
2022-12-14T07:29:53.056Z,100313.22
2022-12-14T07:32:19.943Z,100306.38
2022-12-14T07:34:48.436Z,100324.88
2022-12-14T07:37:15.334Z,100320.41
2022-12-14T07:39:42.205Z,100319.47
2022-12-14T07:42:09.267Z,100324.16
2022-12-14T07:44:36.269Z,100318.66
2022-12-14T07:47:03.457Z,100309.53
2022-12-14T07:49:30.253Z,100317.75
2022-12-14T07:51:57.404Z,100320.53
2022-12-14T07:54:25.015Z,100314.22
2022-12-14T07:56:51.878Z,100317.78
2022-12-14T07:59:19.985Z,100323.25
2022-12-14T08:01:47.364Z,100320.84
2022-12-14T08:04:16.058Z,100312.78
2022-12-14T08:06:43.260Z,100301.63
2022-12-14T08:09:11.838Z,100310.56
2022-12-14T08:11:39.489Z,100308.34
2022-12-14T08:14:07.556Z,100309.47
2022-12-14T08:16:34.707Z,100304.22
2022-12-14T08:19:01.664Z,100305.13
2022-12-14T08:21:28.850Z,100303.75
2022-12-14T08:23:57.195Z,100304.22
2022-12-14T08:26:27.453Z,100304.91
2022-12-14T08:28:58.854Z,100300.78
2022-12-14T08:31:26.542Z,100303.41
2022-12-14T08:33:53.639Z,100299.66
2022-12-14T08:36:22.351Z,100294.69
2022-12-14T08:38:53.677Z,100293.09
2022-12-14T08:41:20.779Z,100295.59
2022-12-14T08:43:49.837Z,100298.84
2022-12-14T08:46:16.812Z,100295.25
2022-12-14T08:48:43.830Z,100289.72
2022-12-14T08:51:10.755Z,100284.97
2022-12-14T08:53:37.954Z,100285.97
2022-12-14T08:56:07.061Z,100289.09
2022-12-14T08:58:35.945Z,100285.94
2022-12-14T09:01:12.308Z,100280.34
2022-12-14T09:03:44.487Z,100285.81
2022-12-14T09:06:12.827Z,100283.25
2022-12-14T09:08:39.725Z,100276.22
2022-12-14T09:11:06.924Z,100274.03
2022-12-14T09:13:34.550Z,100275.53
2022-12-14T09:16:06.531Z,100279.19
2022-12-14T09:18:34.541Z,100279.09
2022-12-14T09:21:01.503Z,100275.91
2022-12-14T09:23:30.417Z,100259.72
2022-12-14T09:26:08.564Z,100274.53
2022-12-14T09:28:36.565Z,100266.66
2022-12-14T09:31:08.028Z,100261.84
2022-12-14T09:33:35.378Z,100269.16
2022-12-14T09:36:03.928Z,100263.97
2022-12-14T09:38:32.341Z,100271.09
2022-12-14T09:41:01.280Z,100264.41
2022-12-14T09:43:38.926Z,100267.25
2022-12-14T09:46:09.081Z,100261.00
2022-12-14T09:48:36.827Z,100265.91
2022-12-14T09:51:03.937Z,100261.84
2022-12-14T09:53:31.343Z,100265.50
2022-12-14T09:55:58.999Z,100256.25
2022-12-14T09:58:27.825Z,100256.81
2022-12-14T10:00:59.069Z,100251.78
2022-12-14T10:03:39.339Z,100241.88
2022-12-14T10:06:25.066Z,100240.66
2022-12-14T10:08:56.790Z,100239.44
2022-12-14T10:11:32.064Z,100245.06
2022-12-14T10:14:22.425Z,100236.16
2022-12-14T10:17:01.469Z,100236.94
2022-12-14T10:19:33.729Z,100231.63
2022-12-14T10:22:06.886Z,100223.97
2022-12-14T10:24:39.241Z,100225.56
2022-12-14T10:27:07.312Z,100230.16
2022-12-14T10:29:41.493Z,100224.50
2022-12-14T10:32:31.580Z,100219.41
2022-12-14T10:35:00.372Z,100219.38
2022-12-14T10:37:32.057Z,100225.19
2022-12-14T10:40:17.764Z,100216.50
2022-12-14T10:42:57.938Z,100213.38
2022-12-14T10:45:40.352Z,100217.84
2022-12-14T10:48:11.592Z,100214.03
2022-12-14T10:50:57.328Z,100219.19
2022-12-14T10:53:27.949Z,100216.53
2022-12-14T10:55:57.876Z,100221.56
2022-12-14T10:58:24.958Z,100224.34
2022-12-14T11:00:56.025Z,100216.84
2022-12-14T11:03:23.032Z,100214.00
2022-12-14T11:06:04.738Z,100220.31
2022-12-14T11:08:48.081Z,100216.22
2022-12-14T11:11:23.469Z,100219.75
2022-12-14T11:13:51.780Z,100217.13
2022-12-14T11:16:27.705Z,100209.56
2022-12-14T11:18:58.958Z,100196.03
2022-12-14T11:21:35.473Z,100193.94
2022-12-14T11:24:02.996Z,100172.97
2022-12-14T11:26:34.933Z,100162.81
2022-12-14T11:29:03.824Z,100141.75
2022-12-14T11:31:35.743Z,100129.84
2022-12-14T11:34:04.078Z,100108.97
2022-12-14T11:36:38.291Z,100116.16
2022-12-14T11:39:07.183Z,100108.88
2022-12-14T11:41:38.528Z,100104.63
2022-12-14T11:44:07.011Z,100089.16
2022-12-14T11:47:00.539Z,100078.78
2022-12-14T11:49:44.255Z,100071.19
2022-12-14T11:52:13.134Z,100073.03
2022-12-14T11:54:41.433Z,100054.03
2022-12-14T11:57:17.631Z,100063.19
2022-12-14T11:59:45.435Z,100037.47
2022-12-14T12:02:30.423Z,100046.44
2022-12-14T12:04:59.731Z,100016.03
2022-12-14T12:07:32.181Z,100043.47
2022-12-14T12:10:05.297Z,100024.00
2022-12-14T12:12:32.961Z,100041.41
2022-12-14T12:15:00.309Z,100029.50
2022-12-14T12:17:47.602Z,100010.09
2022-12-14T12:20:23.221Z,100025.03
2022-12-14T12:22:52.199Z,100028.19
2022-12-14T12:25:33.510Z,100023.63
2022-12-14T12:28:12.333Z,100014.25
2022-12-14T12:30:43.914Z,99994.97
2022-12-14T12:33:20.474Z,99996.56
2022-12-14T12:35:52.292Z,99978.16
2022-12-14T12:38:19.156Z,99973.34
2022-12-14T12:41:06.861Z,100009.69
2022-12-14T12:43:35.076Z,99969.84
2022-12-14T12:46:09.731Z,99966.06
2022-12-14T12:48:36.588Z,99976.53
2022-12-14T12:51:21.771Z,99975.94
2022-12-14T12:53:52.783Z,99967.66
2022-12-14T12:56:21.760Z,99955.78
2022-12-14T12:58:52.969Z,99943.25
2022-12-14T13:01:26.099Z,99975.97
2022-12-14T13:03:55.556Z,99925.59
2022-12-14T13:06:31.023Z,99925.13
2022-12-14T13:08:59.986Z,99948.72
2022-12-14T13:11:32.381Z,99956.19
2022-12-14T13:14:06.609Z,99969.41
2022-12-14T13:16:35.155Z,99955.22
2022-12-14T13:22:15.217Z,99951.63
2022-12-14T13:24:43.799Z,99957.03
2022-12-14T13:27:17.439Z,99946.03
2022-12-14T13:30:04.112Z,99939.50
2022-12-14T13:32:39.469Z,99943.66
2022-12-14T13:35:15.735Z,99923.47
2022-12-14T13:37:51.946Z,99954.72
2022-12-14T13:40:37.905Z,99930.31
2022-12-14T13:43:11.337Z,99935.66
2022-12-14T13:45:40.025Z,99922.06
2022-12-14T13:48:27.078Z,99946.13
2022-12-14T13:51:01.985Z,99948.16
2022-12-14T13:53:32.020Z,99946.69
2022-12-14T13:56:00.049Z,99947.13
2022-12-14T13:58:34.442Z,99936.69
2022-12-14T14:01:15.194Z,99948.25
2022-12-14T14:03:44.331Z,99938.19
2022-12-14T14:06:11.282Z,99932.75
2022-12-14T14:08:42.778Z,99950.03
2022-12-14T14:14:12.278Z,99942.66
2022-12-14T14:16:43.007Z,99931.59
2022-12-14T14:19:12.688Z,99916.78
2022-12-14T14:22:23.341Z,99889.38
2022-12-14T14:24:52.766Z,99905.63
2022-12-14T14:27:21.232Z,99912.84
2022-12-14T14:29:50.329Z,99902.22
2022-12-14T14:32:33.602Z,99914.63
2022-12-14T14:35:02.642Z,99909.84
2022-12-14T14:37:33.672Z,99924.41
2022-12-14T14:40:16.715Z,99951.22
2022-12-14T14:42:55.701Z,99962.13
2022-12-14T14:45:28.302Z,99960.66
2022-12-14T14:47:59.753Z,99973.53
2022-12-14T14:50:29.576Z,99981.81
2022-12-14T14:53:02.762Z,99998.13
2022-12-14T14:55:51.868Z,100014.78
2022-12-14T14:58:24.796Z,100037.41
2022-12-14T15:00:54.418Z,100042.47
2022-12-14T15:03:25.684Z,100064.13
2022-12-14T15:05:52.745Z,100061.63
2022-12-14T15:08:22.739Z,100080.97
2022-12-14T15:10:50.108Z,100088.00
2022-12-14T15:13:22.659Z,100100.38
2022-12-14T15:15:51.234Z,100104.66
2022-12-14T15:18:22.901Z,100112.91
2022-12-14T15:20:53.462Z,100117.34
2022-12-14T15:23:20.827Z,100111.16
2022-12-14T15:25:55.497Z,100115.47
2022-12-14T15:28:23.468Z,100114.88
2022-12-14T15:30:50.348Z,100114.69
2022-12-14T15:33:36.955Z,100116.03
2022-12-14T15:36:05.459Z,100120.00
2022-12-14T15:38:35.122Z,100128.97
2022-12-14T15:41:16.044Z,100129.25
2022-12-14T15:43:44.043Z,100128.88
2022-12-14T15:46:14.621Z,100134.03
2022-12-14T15:48:41.594Z,100141.97
2022-12-14T15:51:13.242Z,100142.84
2022-12-14T15:53:42.522Z,100140.84
2022-12-14T15:56:16.099Z,100144.91
2022-12-14T15:58:43.481Z,100134.03
2022-12-14T16:01:17.487Z,100133.06
2022-12-14T16:03:46.202Z,100132.50
2022-12-14T16:06:14.174Z,100136.97
2022-12-14T16:08:47.336Z,100125.22
2022-12-14T16:11:21.841Z,100133.56
2022-12-14T16:13:49.545Z,100133.97
2022-12-14T16:16:18.607Z,100137.28
2022-12-14T16:18:51.035Z,100138.69
2022-12-14T16:21:26.177Z,100143.56
2022-12-14T16:23:53.085Z,100128.84
2022-12-14T16:26:25.220Z,100133.72
2022-12-14T16:29:09.299Z,100130.31
2022-12-14T16:31:37.374Z,100129.13
2022-12-14T16:34:13.263Z,100127.94
2022-12-14T16:36:40.467Z,100134.06
2022-12-14T16:39:15.508Z,100135.47
2022-12-14T16:41:44.594Z,100122.38
2022-12-14T16:44:22.380Z,100127.28
2022-12-14T16:47:02.193Z,100119.59
2022-12-14T16:49:39.260Z,100120.41
2022-12-14T16:52:24.319Z,100131.72
2022-12-14T16:55:12.100Z,100124.06
2022-12-14T16:57:41.455Z,100129.72
2022-12-14T17:00:19.269Z,100125.91
2022-12-14T17:02:53.292Z,100134.22
2022-12-14T17:05:22.730Z,100128.53
2022-12-14T17:07:50.015Z,100131.38
2022-12-14T17:10:18.230Z,100135.63
2022-12-14T17:12:45.304Z,100128.75
2022-12-14T17:15:12.964Z,100126.13
2022-12-14T17:17:40.329Z,100119.09
2022-12-14T17:20:13.661Z,100112.22
2022-12-14T17:22:41.697Z,100117.09
2022-12-14T17:25:10.813Z,100124.16
2022-12-14T17:27:38.024Z,100119.94
2022-12-14T17:30:05.271Z,100121.94
2022-12-14T17:32:32.682Z,100125.19
2022-12-14T17:35:00.134Z,100111.88
2022-12-14T17:37:31.131Z,100111.69
2022-12-14T17:40:03.725Z,100116.69
2022-12-14T17:42:30.659Z,100112.47
2022-12-14T17:44:59.772Z,100114.09
2022-12-14T17:47:26.730Z,100121.56
2022-12-14T17:49:54.086Z,100115.09
2022-12-14T17:52:23.778Z,100110.25
2022-12-14T17:54:50.708Z,100109.88
2022-12-14T17:57:22.169Z,100100.16
2022-12-14T17:59:49.263Z,100104.03
2022-12-14T18:02:22.475Z,100105.03
2022-12-14T18:04:49.516Z,100098.94
2022-12-14T18:07:16.298Z,100102.78
2022-12-14T18:09:43.279Z,100095.94
2022-12-14T18:12:25.254Z,100096.75
2022-12-14T18:14:53.411Z,100096.34
2022-12-14T18:17:20.372Z,100091.50
2022-12-14T18:19:49.713Z,100091.69
2022-12-14T18:22:17.436Z,100091.09
2022-12-14T18:24:45.888Z,100089.06
2022-12-14T18:27:16.415Z,100090.88
2022-12-14T18:29:43.512Z,100090.06
2022-12-14T18:32:13.375Z,100090.88
2022-12-14T18:34:40.917Z,100087.03
2022-12-14T18:37:08.596Z,100089.06
2022-12-14T18:39:35.615Z,100089.06
2022-12-14T18:42:02.912Z,100094.31
2022-12-14T18:44:29.842Z,100081.38
2022-12-14T18:47:05.533Z,100095.31
2022-12-14T18:49:41.837Z,100091.25
2022-12-14T18:52:10.875Z,100091.25
2022-12-14T18:54:37.685Z,100089.03
2022-12-14T18:57:04.540Z,100083.00
2022-12-14T18:59:31.801Z,100096.28
2022-12-14T19:02:00.534Z,100091.84
2022-12-14T19:04:28.346Z,100087.59
2022-12-14T19:06:55.197Z,100100.34
2022-12-14T19:09:22.135Z,100094.66
2022-12-14T19:11:48.975Z,100090.03
2022-12-14T19:14:16.242Z,100081.72
2022-12-14T19:16:43.389Z,100090.81
2022-12-14T19:19:10.408Z,100093.44
2022-12-14T19:21:37.555Z,100077.31
2022-12-14T19:24:04.653Z,100083.50
2022-12-14T19:26:31.988Z,100080.91
2022-12-14T19:28:58.926Z,100079.88
2022-12-14T19:31:26.545Z,100079.88
2022-12-14T19:33:53.975Z,100069.19
2022-12-14T19:36:22.701Z,100065.69
2022-12-14T19:38:50.824Z,100066.50
2022-12-14T19:41:20.437Z,100068.06
2022-12-14T19:43:47.966Z,100069.69
2022-12-14T19:46:18.345Z,100061.22
2022-12-14T19:48:45.721Z,100067.88
2022-12-14T19:51:13.260Z,100065.00
2022-12-14T19:53:40.814Z,100071.00
2022-12-14T19:56:07.832Z,100076.50
2022-12-14T19:58:35.025Z,100078.44
2022-12-14T20:01:02.597Z,100079.06
2022-12-14T20:03:30.122Z,100091.81
2022-12-14T20:06:01.040Z,100097.22
2022-12-14T20:08:28.954Z,100104.06
2022-12-14T20:10:56.273Z,100107.69
2022-12-14T20:13:24.878Z,100116.41
2022-12-14T20:15:53.010Z,100117.00
2022-12-14T20:21:15.955Z,100118.06
2022-12-14T20:23:49.128Z,100125.31
2022-12-14T20:26:17.682Z,100124.50
2022-12-14T20:28:46.979Z,100120.25
2022-12-14T20:31:16.288Z,100124.06
2022-12-14T20:33:44.008Z,100118.56
2022-12-14T20:36:11.495Z,100119.72
2022-12-14T20:38:39.454Z,100123.06
2022-12-14T20:41:07.324Z,100127.50
2022-12-14T20:43:35.556Z,100126.88
2022-12-14T20:46:02.849Z,100136.75
2022-12-14T20:48:29.953Z,100137.34
2022-12-14T20:51:01.345Z,100138.97
2022-12-14T20:53:29.370Z,100134.63
2022-12-14T20:55:56.493Z,100143.50
2022-12-14T20:58:24.366Z,100134.22
2022-12-14T21:00:52.447Z,100133.63
2022-12-14T21:03:19.426Z,100131.31
2022-12-14T21:05:46.738Z,100137.44
2022-12-14T21:08:15.721Z,100133.97
2022-12-14T21:10:43.036Z,100131.00
2022-12-14T21:13:09.885Z,100135.44
2022-12-14T21:15:36.689Z,100139.66
2022-12-14T21:18:05.199Z,100134.78
2022-12-14T21:20:32.053Z,100141.03
2022-12-14T21:22:58.902Z,100145.44
2022-12-14T21:25:25.756Z,100146.78
2022-12-14T21:27:53.372Z,100143.19
2022-12-14T21:30:20.295Z,100151.66
2022-12-14T21:32:47.243Z,100142.59
2022-12-14T21:35:18.854Z,100144.91
2022-12-14T21:37:45.839Z,100137.47
2022-12-14T21:40:32.679Z,100131.41
2022-12-14T21:42:59.556Z,100131.31
2022-12-14T21:45:26.675Z,100133.50
2022-12-14T21:47:53.718Z,100135.75
2022-12-14T21:50:20.716Z,100134.13
2022-12-14T21:52:47.789Z,100142.97
2022-12-14T21:55:14.628Z,100138.94
2022-12-14T21:57:59.927Z,100133.31
2022-12-14T22:00:26.730Z,100136.06
2022-12-14T22:02:53.634Z,100133.75
2022-12-14T22:05:20.725Z,100133.00
2022-12-14T22:07:47.613Z,100135.53
2022-12-14T22:10:15.981Z,100137.50
2022-12-14T22:12:45.669Z,100142.38
2022-12-14T22:15:12.482Z,100142.84
2022-12-14T22:17:41.100Z,100137.47
2022-12-14T22:20:08.304Z,100135.59
2022-12-14T22:22:36.827Z,100128.13
2022-12-14T22:25:03.976Z,100129.56
2022-12-14T22:27:32.906Z,100122.16
2022-12-14T22:29:59.831Z,100124.41
2022-12-14T22:32:27.893Z,100126.31
2022-12-14T22:34:54.731Z,100125.50
2022-12-14T22:37:21.863Z,100125.41
2022-12-14T22:39:48.695Z,100131.53
2022-12-14T22:42:16.172Z,100125.75
2022-12-14T22:44:43.182Z,100130.25
2022-12-14T22:47:10.091Z,100121.72
2022-12-14T22:49:36.894Z,100124.88
2022-12-14T22:52:03.712Z,100124.34
2022-12-14T22:54:31.183Z,100140.41
2022-12-14T22:57:04.308Z,100128.84
2022-12-14T22:59:40.394Z,100126.97
2022-12-14T23:02:07.399Z,100121.13
2022-12-14T23:04:36.000Z,100121.13
2022-12-14T23:07:03.088Z,100135.97
2022-12-14T23:09:48.642Z,100137.50
2022-12-14T23:12:33.789Z,100136.88
2022-12-14T23:15:19.104Z,100141.94
2022-12-14T23:18:04.466Z,100152.13
2022-12-14T23:20:49.793Z,100151.13
2022-12-14T23:23:35.422Z,100158.03
2022-12-14T23:26:24.242Z,100153.75
2022-12-14T23:29:11.115Z,100152.53
2022-12-14T23:31:56.415Z,100145.50
2022-12-14T23:34:41.917Z,100154.72
2022-12-14T23:37:27.430Z,100152.94
2022-12-14T23:40:12.790Z,100154.09
2022-12-14T23:42:58.541Z,100157.16
2022-12-14T23:45:43.798Z,100171.41
2022-12-14T23:48:29.360Z,100172.41
2022-12-14T23:51:14.880Z,100173.66
2022-12-14T23:54:00.260Z,100167.16
2022-12-14T23:56:45.804Z,100173.38
2022-12-14T23:59:32.889Z,100169.41
